createdAt,value
2018-01-23T00:00:31.474Z,888.43
2018-01-23T00:01:31.462Z,888.43
2018-01-23T00:02:31.447Z,888.48
2018-01-23T00:03:31.432Z,888.46
2018-01-23T00:04:31.420Z,888.49
2018-01-23T00:05:31.405Z,888.49
2018-01-23T00:06:31.391Z,888.58
2018-01-23T00:07:31.378Z,888.61
2018-01-23T00:08:31.364Z,888.66
2018-01-23T00:09:31.346Z,888.62
2018-01-23T00:10:31.335Z,888.61
2018-01-23T00:11:31.319Z,888.61
2018-01-23T00:12:31.300Z,888.59
2018-01-23T00:13:31.290Z,888.54
2018-01-23T00:14:31.277Z,888.55
2018-01-23T00:15:31.259Z,888.64
2018-01-23T00:16:31.248Z,888.69
2018-01-23T00:17:31.228Z,888.74
2018-01-23T00:18:31.214Z,888.72
2018-01-23T00:19:31.200Z,888.70
2018-01-23T00:20:31.189Z,888.71
2018-01-23T00:21:31.174Z,888.72
2018-01-23T00:22:31.160Z,888.68
2018-01-23T00:23:31.145Z,888.66
2018-01-23T00:24:31.129Z,888.67
2018-01-23T00:25:31.117Z,888.58
2018-01-23T00:26:31.101Z,888.56
2018-01-23T00:27:31.084Z,888.55
2018-01-23T00:28:31.071Z,888.55
2018-01-23T00:29:31.057Z,888.59
2018-01-23T00:30:31.046Z,888.66
2018-01-23T00:31:31.028Z,888.71
2018-01-23T00:32:31.015Z,888.79
2018-01-23T00:33:30.999Z,888.84
2018-01-23T00:34:30.986Z,888.91
2018-01-23T00:35:30.972Z,888.85
2018-01-23T00:36:30.956Z,888.83
2018-01-23T00:37:30.938Z,888.80
2018-01-23T00:38:30.930Z,888.76
2018-01-23T00:39:30.914Z,888.78
2018-01-23T00:40:30.894Z,888.80
2018-01-23T00:41:30.881Z,888.80
2018-01-23T00:42:30.873Z,888.76
2018-01-23T00:43:30.855Z,888.78
2018-01-23T00:44:30.840Z,888.76
2018-01-23T00:45:30.828Z,888.75
2018-01-23T00:46:30.811Z,888.73
2018-01-23T00:47:30.795Z,888.67
2018-01-23T00:48:30.782Z,888.63
2018-01-23T00:49:30.770Z,888.59
2018-01-23T00:50:30.753Z,888.64
2018-01-23T00:51:30.739Z,888.65
2018-01-23T00:52:30.722Z,888.65
2018-01-23T00:53:30.713Z,888.64
2018-01-23T00:54:30.694Z,888.66
2018-01-23T00:55:30.681Z,888.68
2018-01-23T00:56:30.663Z,888.71
2018-01-23T00:57:30.651Z,888.74
2018-01-23T00:58:30.638Z,888.76
2018-01-23T00:59:30.622Z,888.75
2018-01-23T01:00:30.603Z,888.79
2018-01-23T01:01:30.592Z,888.78
2018-01-23T01:02:30.580Z,888.76
2018-01-23T01:03:30.564Z,888.69
2018-01-23T01:04:30.554Z,888.70
2018-01-23T01:05:30.537Z,888.73
2018-01-23T01:06:30.522Z,888.73
2018-01-23T01:07:30.506Z,888.79
2018-01-23T01:08:30.492Z,888.91
2018-01-23T01:09:30.479Z,888.99
2018-01-23T01:10:30.459Z,889.03
2018-01-23T01:11:30.452Z,889.05
2018-01-23T01:12:30.435Z,889.05
2018-01-23T01:13:30.418Z,889.02
2018-01-23T01:14:30.404Z,888.99
2018-01-23T01:15:30.391Z,888.98
2018-01-23T01:16:30.374Z,889.08
2018-01-23T01:17:30.362Z,889.05
2018-01-23T01:18:30.347Z,889.09
2018-01-23T01:19:30.331Z,889.14
2018-01-23T01:20:30.326Z,889.20
2018-01-23T01:21:30.303Z,889.21
2018-01-23T01:22:30.293Z,889.20
2018-01-23T01:23:30.279Z,889.15
2018-01-23T01:24:30.260Z,889.13
2018-01-23T01:25:30.246Z,889.22
2018-01-23T01:26:30.231Z,889.23
2018-01-23T01:27:30.217Z,889.28
2018-01-23T01:28:30.200Z,889.30
2018-01-23T01:29:30.188Z,889.33
2018-01-23T01:30:30.175Z,889.36
2018-01-23T01:31:30.159Z,889.33
2018-01-23T01:32:30.145Z,889.27
2018-01-23T01:33:30.130Z,889.23
2018-01-23T01:34:30.112Z,889.20
2018-01-23T01:35:30.104Z,889.22
2018-01-23T01:36:30.093Z,889.26
2018-01-23T01:37:30.075Z,889.28
2018-01-23T01:38:30.054Z,889.20
2018-01-23T01:39:30.044Z,889.12
2018-01-23T01:40:30.027Z,889.12
2018-01-23T01:41:30.013Z,889.10
2018-01-23T01:42:30.000Z,889.07
2018-01-23T01:43:29.984Z,889.08
2018-01-23T01:44:29.971Z,889.14
2018-01-23T01:45:29.957Z,889.13
2018-01-23T01:46:29.943Z,889.11
2018-01-23T01:47:29.928Z,889.09
2018-01-23T01:48:29.910Z,889.11
2018-01-23T01:49:29.893Z,889.06
2018-01-23T01:50:29.885Z,889.06
2018-01-23T01:51:29.868Z,889.09
2018-01-23T01:52:29.854Z,889.08
2018-01-23T01:53:29.837Z,889.09
2018-01-23T01:54:29.825Z,889.13
2018-01-23T01:55:29.808Z,889.13
2018-01-23T01:56:29.794Z,889.16
2018-01-23T01:57:29.778Z,889.14
2018-01-23T01:58:29.768Z,889.16
2018-01-23T01:59:29.757Z,889.15
2018-01-23T02:00:29.736Z,889.15
2018-01-23T02:01:29.726Z,889.16
2018-01-23T02:02:29.708Z,889.07
2018-01-23T02:03:29.695Z,889.12
2018-01-23T02:04:29.680Z,889.12
2018-01-23T02:05:29.664Z,889.12
2018-01-23T02:06:29.650Z,889.18
2018-01-23T02:07:29.638Z,889.13
2018-01-23T02:08:29.623Z,889.13
2018-01-23T02:09:29.608Z,889.16
2018-01-23T02:10:29.593Z,889.13
2018-01-23T02:11:29.580Z,889.19
2018-01-23T02:12:29.563Z,889.18
2018-01-23T02:13:29.552Z,889.21
2018-01-23T02:14:29.536Z,889.25
2018-01-23T02:15:29.518Z,889.21
2018-01-23T02:16:29.505Z,889.21
2018-01-23T02:17:29.486Z,889.22
2018-01-23T02:18:29.478Z,889.20
2018-01-23T02:19:29.466Z,889.24
2018-01-23T02:20:29.448Z,889.26
2018-01-23T02:21:29.431Z,889.26
2018-01-23T02:22:29.422Z,889.30
2018-01-23T02:23:29.406Z,889.29
2018-01-23T02:24:29.388Z,889.27
2018-01-23T02:25:29.377Z,889.27
2018-01-23T02:26:29.365Z,889.30
2018-01-23T02:27:29.348Z,889.32
2018-01-23T02:28:29.330Z,889.28
2018-01-23T02:29:29.321Z,889.32
2018-01-23T02:30:29.303Z,889.33
2018-01-23T02:31:29.288Z,889.30
2018-01-23T02:32:29.276Z,889.33
2018-01-23T02:33:29.264Z,889.29
2018-01-23T02:34:29.247Z,889.29
2018-01-23T02:35:29.232Z,889.28
2018-01-23T02:36:29.218Z,889.36
2018-01-23T02:37:29.202Z,889.35
2018-01-23T02:38:29.189Z,889.34
2018-01-23T02:39:29.173Z,889.38
2018-01-23T02:40:29.162Z,889.43
2018-01-23T02:41:36.002Z,889.46
2018-01-23T02:42:29.131Z,889.48
2018-01-23T02:43:29.126Z,889.46
2018-01-23T02:44:29.097Z,889.50
2018-01-23T02:45:29.087Z,889.48
2018-01-23T02:46:29.072Z,889.51
2018-01-23T02:47:29.059Z,889.56
2018-01-23T02:48:29.043Z,889.62
2018-01-23T02:49:29.030Z,889.62
2018-01-23T02:50:29.010Z,889.60
2018-01-23T02:51:29.003Z,889.66
2018-01-23T02:52:28.987Z,889.64
2018-01-23T02:53:28.971Z,889.67
2018-01-23T02:54:28.954Z,889.65
2018-01-23T02:55:28.944Z,889.67
2018-01-23T02:56:28.929Z,889.70
2018-01-23T02:57:28.913Z,889.74
2018-01-23T02:58:28.898Z,889.76
2018-01-23T02:59:28.884Z,889.79
2018-01-23T03:00:28.870Z,889.83
2018-01-23T03:01:28.856Z,889.83
2018-01-23T03:02:28.848Z,889.84
2018-01-23T03:03:28.824Z,889.90
2018-01-23T03:04:28.812Z,889.91
2018-01-23T03:05:28.796Z,889.96
2018-01-23T03:06:28.785Z,890.04
2018-01-23T03:07:28.770Z,890.05
2018-01-23T03:08:28.750Z,890.11
2018-01-23T03:09:28.738Z,890.12
2018-01-23T03:10:28.725Z,890.16
2018-01-23T03:11:28.711Z,890.10
2018-01-23T03:12:28.696Z,890.08
2018-01-23T03:13:28.680Z,890.09
2018-01-23T03:14:28.697Z,890.13
2018-01-23T03:15:28.658Z,890.11
2018-01-23T03:16:28.637Z,890.14
2018-01-23T03:17:28.626Z,890.15
2018-01-23T03:18:28.612Z,890.21
2018-01-23T03:19:28.607Z,890.11
2018-01-23T03:20:28.586Z,890.10
2018-01-23T03:21:28.591Z,890.11
2018-01-23T03:22:28.555Z,890.14
2018-01-23T03:23:28.541Z,890.17
2018-01-23T03:24:28.525Z,890.18
2018-01-23T03:25:28.512Z,890.14
2018-01-23T03:26:28.496Z,890.11
2018-01-23T03:27:28.484Z,890.19
2018-01-23T03:28:28.467Z,890.17
2018-01-23T03:29:28.454Z,890.15
2018-01-23T03:30:28.443Z,890.11
2018-01-23T03:31:28.425Z,890.09
2018-01-23T03:32:28.407Z,890.12
2018-01-23T03:33:28.396Z,890.10
2018-01-23T03:34:28.382Z,890.17
2018-01-23T03:35:28.371Z,890.17
2018-01-23T03:36:28.353Z,890.21
2018-01-23T03:37:28.335Z,890.19
2018-01-23T03:38:28.324Z,890.20
2018-01-23T03:39:28.310Z,890.26
2018-01-23T03:40:28.291Z,890.32
2018-01-23T03:41:28.285Z,890.33
2018-01-23T03:42:28.266Z,890.39
2018-01-23T03:43:28.254Z,890.38
2018-01-23T03:44:28.237Z,890.41
2018-01-23T03:45:28.223Z,890.42
2018-01-23T03:46:28.209Z,890.45
2018-01-23T03:47:28.194Z,890.46
2018-01-23T03:48:28.180Z,890.52
2018-01-23T03:49:28.165Z,890.47
2018-01-23T03:50:28.151Z,890.51
2018-01-23T03:51:28.144Z,890.53
2018-01-23T03:52:28.118Z,890.50
2018-01-23T03:53:28.111Z,890.46
2018-01-23T03:54:28.093Z,890.43
2018-01-23T03:55:28.081Z,890.41
2018-01-23T03:56:28.064Z,890.43
2018-01-23T03:57:28.052Z,890.38
2018-01-23T03:58:28.037Z,890.41
2018-01-23T03:59:28.025Z,890.40
2018-01-23T04:00:28.008Z,890.43
2018-01-23T04:01:27.997Z,890.43
2018-01-23T04:02:27.977Z,890.42
2018-01-23T04:03:27.963Z,890.46
2018-01-23T04:04:27.955Z,890.49
2018-01-23T04:05:27.936Z,890.48
2018-01-23T04:06:27.922Z,890.50
2018-01-23T04:07:27.909Z,890.49
2018-01-23T04:08:27.889Z,890.51
2018-01-23T04:09:27.878Z,890.53
2018-01-23T04:10:27.864Z,890.54
2018-01-23T04:11:27.848Z,890.56
2018-01-23T04:12:27.835Z,890.59
2018-01-23T04:13:27.821Z,890.60
2018-01-23T04:14:27.806Z,890.66
2018-01-23T04:15:27.792Z,890.67
2018-01-23T04:16:27.777Z,890.68
2018-01-23T04:17:27.761Z,890.71
2018-01-23T04:18:27.747Z,890.81
2018-01-23T04:19:27.731Z,890.81
2018-01-23T04:20:27.720Z,890.77
2018-01-23T04:21:27.712Z,890.81
2018-01-23T04:22:27.690Z,890.82
2018-01-23T04:23:27.680Z,890.88
2018-01-23T04:24:27.661Z,890.88
2018-01-23T04:25:27.649Z,890.86
2018-01-23T04:26:27.635Z,890.82
2018-01-23T04:27:27.666Z,890.84
2018-01-23T04:28:27.604Z,890.81
2018-01-23T04:29:27.591Z,890.85
2018-01-23T04:30:27.611Z,890.79
2018-01-23T04:31:27.562Z,890.81
2018-01-23T04:32:27.546Z,890.75
2018-01-23T04:33:27.534Z,890.74
2018-01-23T04:34:27.513Z,890.72
2018-01-23T04:35:27.503Z,890.71
2018-01-23T04:36:27.485Z,890.74
2018-01-23T04:37:27.474Z,890.70
2018-01-23T04:38:27.461Z,890.71
2018-01-23T04:39:27.445Z,890.69
2018-01-23T04:40:27.432Z,890.69
2018-01-23T04:41:27.418Z,890.66
2018-01-23T04:42:27.402Z,890.61
2018-01-23T04:43:27.391Z,890.57
2018-01-23T04:44:27.374Z,890.59
2018-01-23T04:45:27.363Z,890.59
2018-01-23T04:46:27.346Z,890.64
2018-01-23T04:47:27.347Z,890.65
2018-01-23T04:48:27.317Z,890.70
2018-01-23T04:49:27.298Z,890.71
2018-01-23T04:50:27.290Z,890.72
2018-01-23T04:51:27.275Z,890.70
2018-01-23T04:52:27.259Z,890.74
2018-01-23T04:53:27.245Z,890.81
2018-01-23T04:54:27.228Z,890.86
2018-01-23T04:55:27.216Z,890.90
2018-01-23T04:56:27.201Z,890.88
2018-01-23T04:57:27.187Z,890.88
2018-01-23T04:58:27.176Z,890.96
2018-01-23T04:59:27.162Z,891.02
2018-01-23T05:00:27.146Z,891.06
2018-01-23T05:01:27.133Z,891.07
2018-01-23T05:02:27.120Z,891.02
2018-01-23T05:03:27.100Z,891.04
2018-01-23T05:04:27.090Z,891.04
2018-01-23T05:05:27.070Z,891.06
2018-01-23T05:06:27.061Z,891.10
2018-01-23T05:07:27.048Z,891.09
2018-01-23T05:08:27.032Z,891.09
2018-01-23T05:09:27.017Z,891.07
2018-01-23T05:10:27.001Z,891.04
2018-01-23T05:11:26.987Z,891.08
2018-01-23T05:12:26.972Z,891.11
2018-01-23T05:13:26.960Z,891.12
2018-01-23T05:14:26.949Z,891.10
2018-01-23T05:15:26.929Z,891.12
2018-01-23T05:16:26.919Z,891.08
2018-01-23T05:17:26.896Z,891.09
2018-01-23T05:18:26.884Z,891.05
2018-01-23T05:19:26.873Z,891.03
2018-01-23T05:20:26.863Z,891.01
2018-01-23T05:21:26.842Z,891.01
2018-01-23T05:22:26.826Z,891.04
2018-01-23T05:23:26.815Z,891.03
2018-01-23T05:24:26.799Z,891.04
2018-01-23T05:25:26.786Z,891.04
2018-01-23T05:26:26.772Z,891.05
2018-01-23T05:27:26.756Z,891.02
2018-01-23T05:28:26.749Z,891.03
2018-01-23T05:29:26.723Z,891.05
2018-01-23T05:30:26.716Z,891.00
2018-01-23T05:31:26.702Z,891.01
2018-01-23T05:32:26.685Z,891.00
2018-01-23T05:33:26.668Z,891.01
2018-01-23T05:34:26.655Z,891.06
2018-01-23T05:35:26.643Z,891.03
2018-01-23T05:36:26.629Z,891.06
2018-01-23T05:37:26.609Z,891.05
2018-01-23T05:38:26.601Z,891.11
2018-01-23T05:39:26.584Z,891.14
2018-01-23T05:40:26.572Z,891.13
2018-01-23T05:41:26.553Z,891.13
2018-01-23T05:42:26.541Z,891.16
2018-01-23T05:43:26.529Z,891.18
2018-01-23T05:44:26.512Z,891.20
2018-01-23T05:45:26.501Z,891.17
2018-01-23T05:46:26.482Z,891.20
2018-01-23T05:47:26.473Z,891.21
2018-01-23T05:48:26.452Z,891.24
2018-01-23T05:49:26.442Z,891.27
2018-01-23T05:50:26.428Z,891.27
2018-01-23T05:51:26.411Z,891.25
2018-01-23T05:52:26.406Z,891.29
2018-01-23T05:53:26.384Z,891.27
2018-01-23T05:54:26.377Z,891.31
2018-01-23T05:55:26.357Z,891.37
2018-01-23T05:56:26.341Z,891.40
2018-01-23T05:57:26.329Z,891.43
2018-01-23T05:58:26.316Z,891.49
2018-01-23T05:59:26.297Z,891.52
2018-01-23T06:00:26.285Z,891.52
2018-01-23T06:01:26.268Z,891.53
2018-01-23T06:02:26.256Z,891.59
2018-01-23T06:03:26.240Z,891.60
2018-01-23T06:04:26.227Z,891.55
2018-01-23T06:05:26.213Z,891.56
2018-01-23T06:06:26.198Z,891.59
2018-01-23T06:07:26.184Z,891.60
2018-01-23T06:08:26.171Z,891.62
2018-01-23T06:09:26.155Z,891.67
2018-01-23T06:10:26.140Z,891.66
2018-01-23T06:11:26.179Z,891.71
2018-01-23T06:12:26.113Z,891.70
2018-01-23T06:13:26.099Z,891.75
2018-01-23T06:14:26.087Z,891.70
2018-01-23T06:15:26.069Z,891.73
2018-01-23T06:16:26.056Z,891.73
2018-01-23T06:17:26.041Z,891.76
2018-01-23T06:18:26.031Z,891.73
2018-01-23T06:19:26.010Z,891.77
2018-01-23T06:20:25.996Z,891.81
2018-01-23T06:21:25.986Z,891.85
2018-01-23T06:22:25.971Z,891.88
2018-01-23T06:23:25.955Z,891.93
2018-01-23T06:24:25.939Z,891.93
2018-01-23T06:25:25.925Z,891.90
2018-01-23T06:26:25.911Z,891.91
2018-01-23T06:27:25.898Z,891.96
2018-01-23T06:28:25.883Z,891.94
2018-01-23T06:29:25.869Z,891.97
2018-01-23T06:30:25.857Z,891.98
2018-01-23T06:31:25.843Z,891.98
2018-01-23T06:32:25.892Z,892.02
2018-01-23T06:33:25.812Z,892.06
2018-01-23T06:34:25.798Z,892.03
2018-01-23T06:35:25.787Z,892.06
2018-01-23T06:36:25.769Z,892.12
2018-01-23T06:37:25.758Z,892.11
2018-01-23T06:38:25.744Z,892.13
2018-01-23T06:39:25.729Z,892.09
2018-01-23T06:40:25.709Z,892.05
2018-01-23T06:41:25.697Z,892.10
2018-01-23T06:42:25.684Z,892.14
2018-01-23T06:43:25.670Z,892.16
2018-01-23T06:44:25.657Z,892.15
2018-01-23T06:45:25.639Z,892.20
2018-01-23T06:46:25.628Z,892.26
2018-01-23T06:47:25.612Z,892.23
2018-01-23T06:48:25.596Z,892.23
2018-01-23T06:49:25.591Z,892.26
2018-01-23T06:50:25.567Z,892.22
2018-01-23T06:51:25.555Z,892.20
2018-01-23T06:52:25.540Z,892.21
2018-01-23T06:53:25.524Z,892.22
2018-01-23T06:54:25.517Z,892.21
2018-01-23T06:55:25.497Z,892.23
2018-01-23T06:56:25.480Z,892.27
2018-01-23T06:57:25.467Z,892.26
2018-01-23T06:58:25.455Z,892.32
2018-01-23T06:59:25.440Z,892.31
2018-01-23T07:00:25.424Z,892.25
2018-01-23T07:01:25.410Z,892.29
2018-01-23T07:02:25.403Z,892.25
2018-01-23T07:03:25.379Z,892.27
2018-01-23T07:04:25.367Z,892.26
2018-01-23T07:05:25.355Z,892.20
2018-01-23T07:06:25.338Z,892.27
2018-01-23T07:07:25.316Z,892.26
2018-01-23T07:08:25.316Z,892.28
2018-01-23T07:09:25.293Z,892.29
2018-01-23T07:10:25.280Z,892.29
2018-01-23T07:11:25.266Z,892.28
2018-01-23T07:12:25.246Z,892.30
2018-01-23T07:13:25.242Z,892.30
2018-01-23T07:14:25.224Z,892.37
2018-01-23T07:15:25.207Z,892.36
2018-01-23T07:16:25.197Z,892.39
2018-01-23T07:17:25.177Z,892.42
2018-01-23T07:18:25.174Z,892.41
2018-01-23T07:19:25.150Z,892.45
2018-01-23T07:20:25.138Z,892.44
2018-01-23T07:21:25.115Z,892.46
2018-01-23T07:22:25.103Z,892.52
2018-01-23T07:23:25.094Z,892.52
2018-01-23T07:24:25.079Z,892.54
2018-01-23T07:25:25.065Z,892.54
2018-01-23T07:26:25.046Z,892.58
2018-01-23T07:27:25.034Z,892.56
2018-01-23T07:28:25.018Z,892.56
2018-01-23T07:29:25.007Z,892.57
2018-01-23T07:30:24.996Z,892.57
2018-01-23T07:31:24.976Z,892.58
2018-01-23T07:32:24.962Z,892.57
2018-01-23T07:33:24.948Z,892.58
2018-01-23T07:34:24.956Z,892.58
2018-01-23T07:35:24.924Z,892.65
2018-01-23T07:36:24.904Z,892.66
2018-01-23T07:37:24.894Z,892.69
2018-01-23T07:38:24.877Z,892.71
2018-01-23T07:39:24.865Z,892.73
2018-01-23T07:40:24.847Z,892.77
2018-01-23T07:41:24.833Z,892.78
2018-01-23T07:42:24.828Z,892.77
2018-01-23T07:43:24.806Z,892.78
2018-01-23T07:44:24.792Z,892.82
2018-01-23T07:45:24.774Z,892.82
2018-01-23T07:46:24.770Z,892.80
2018-01-23T07:47:24.750Z,892.85
2018-01-23T07:48:24.735Z,892.93
2018-01-23T07:49:24.722Z,892.92
2018-01-23T07:50:24.702Z,892.98
2018-01-23T07:51:24.689Z,892.99
2018-01-23T07:52:24.673Z,893.01
2018-01-23T07:53:24.661Z,893.05
2018-01-23T07:54:24.648Z,893.05
2018-01-23T07:55:24.632Z,893.05
2018-01-23T07:56:24.622Z,893.05
2018-01-23T07:57:24.604Z,893.09
2018-01-23T07:58:24.592Z,893.11
2018-01-23T07:59:24.576Z,893.11
2018-01-23T08:00:24.560Z,893.13
2018-01-23T08:01:24.547Z,893.17
2018-01-23T08:02:24.535Z,893.19
2018-01-23T08:03:24.523Z,893.20
2018-01-23T08:04:24.502Z,893.24
2018-01-23T08:05:24.486Z,893.25
2018-01-23T08:06:24.498Z,893.24
2018-01-23T08:07:24.463Z,893.24
2018-01-23T08:08:24.446Z,893.23
2018-01-23T08:09:24.435Z,893.26
2018-01-23T08:10:24.413Z,893.27
2018-01-23T08:11:24.399Z,893.31
2018-01-23T08:12:24.390Z,893.32
2018-01-23T08:13:24.374Z,893.36
2018-01-23T08:14:24.356Z,893.34
2018-01-23T08:15:24.345Z,893.37
2018-01-23T08:16:24.334Z,893.38
2018-01-23T08:17:24.314Z,893.39
2018-01-23T08:18:24.303Z,893.44
2018-01-23T08:19:24.289Z,893.43
2018-01-23T08:20:24.275Z,893.40
2018-01-23T08:21:24.260Z,893.40
2018-01-23T08:22:24.247Z,893.42
2018-01-23T08:23:24.235Z,893.42
2018-01-23T08:24:24.217Z,893.44
2018-01-23T08:25:24.202Z,893.41
2018-01-23T08:26:24.190Z,893.45
2018-01-23T08:27:24.174Z,893.50
2018-01-23T08:28:24.159Z,893.54
2018-01-23T08:29:24.146Z,893.55
2018-01-23T08:30:24.130Z,893.61
2018-01-23T08:31:24.114Z,893.61
2018-01-23T08:32:24.098Z,893.62
2018-01-23T08:33:24.083Z,893.62
2018-01-23T08:34:24.071Z,893.64
2018-01-23T08:35:24.060Z,893.65
2018-01-23T08:36:24.043Z,893.69
2018-01-23T08:37:24.032Z,893.66
2018-01-23T08:38:24.013Z,893.70
2018-01-23T08:39:24.002Z,893.69
2018-01-23T08:40:23.984Z,893.69
2018-01-23T08:41:23.966Z,893.74
2018-01-23T08:42:23.959Z,893.73
2018-01-23T08:43:23.941Z,893.73
2018-01-23T08:44:23.930Z,893.76
2018-01-23T08:45:23.914Z,893.83
2018-01-23T08:46:23.903Z,893.85
2018-01-23T08:47:23.886Z,893.87
2018-01-23T08:48:23.874Z,893.85
2018-01-23T08:49:23.856Z,893.83
2018-01-23T08:50:23.863Z,893.84
2018-01-23T08:51:23.824Z,893.84
2018-01-23T08:52:23.809Z,893.87
2018-01-23T08:53:23.796Z,893.87
2018-01-23T08:54:23.784Z,893.91
2018-01-23T08:55:23.773Z,893.90
2018-01-23T08:56:23.755Z,893.88
2018-01-23T08:57:23.742Z,893.89
2018-01-23T08:58:23.728Z,893.89
2018-01-23T08:59:23.714Z,893.92
2018-01-23T09:00:23.701Z,893.94
2018-01-23T09:01:23.684Z,893.95
2018-01-23T09:02:23.685Z,893.97
2018-01-23T09:03:23.656Z,893.97
2018-01-23T09:04:23.644Z,894.00
2018-01-23T09:05:23.684Z,893.96
2018-01-23T09:06:23.617Z,894.02
2018-01-23T09:07:23.600Z,894.04
2018-01-23T09:08:23.585Z,894.00
2018-01-23T09:09:23.569Z,894.05
2018-01-23T09:10:23.561Z,894.08
2018-01-23T09:11:23.546Z,894.10
2018-01-23T09:12:23.530Z,894.13
2018-01-23T09:13:23.513Z,894.13
2018-01-23T09:14:23.501Z,894.14
2018-01-23T09:15:23.488Z,894.17
2018-01-23T09:16:23.470Z,894.18
2018-01-23T09:17:23.462Z,894.14
2018-01-23T09:18:23.447Z,894.17
2018-01-23T09:19:23.433Z,894.17
2018-01-23T09:20:23.412Z,894.18
2018-01-23T09:21:23.404Z,894.17
2018-01-23T09:22:23.387Z,894.14
2018-01-23T09:23:23.378Z,894.16
2018-01-23T09:24:23.361Z,894.14
2018-01-23T09:25:23.348Z,894.18
2018-01-23T09:26:23.337Z,894.18
2018-01-23T09:27:23.323Z,894.19
2018-01-23T09:28:23.305Z,894.22
2018-01-23T09:29:23.294Z,894.21
2018-01-23T09:30:23.280Z,894.22
2018-01-23T09:31:23.265Z,894.21
2018-01-23T09:32:23.250Z,894.22
2018-01-23T09:33:23.238Z,894.27
2018-01-23T09:34:23.222Z,894.30
2018-01-23T09:35:23.214Z,894.29
2018-01-23T09:36:23.195Z,894.28
2018-01-23T09:37:23.189Z,894.32
2018-01-23T09:38:23.170Z,894.35
2018-01-23T09:39:23.158Z,894.34
2018-01-23T09:40:23.144Z,894.34
2018-01-23T09:41:23.127Z,894.36
2018-01-23T09:42:23.120Z,894.35
2018-01-23T09:43:23.100Z,894.36
2018-01-23T09:44:23.087Z,894.37
2018-01-23T09:45:23.075Z,894.35
2018-01-23T09:46:23.083Z,894.37
2018-01-23T09:47:23.053Z,894.40
2018-01-23T09:48:23.046Z,894.44
2018-01-23T09:49:23.021Z,894.41
2018-01-23T09:50:23.005Z,894.43
2018-01-23T09:51:22.994Z,894.43
2018-01-23T09:52:22.984Z,894.43
2018-01-23T09:53:22.969Z,894.44
2018-01-23T09:54:22.959Z,894.46
2018-01-23T09:55:22.939Z,894.41
2018-01-23T09:56:22.926Z,894.43
2018-01-23T09:57:22.916Z,894.42
2018-01-23T09:58:22.902Z,894.40
2018-01-23T09:59:22.885Z,894.40
2018-01-23T10:00:22.873Z,894.38
2018-01-23T10:01:22.856Z,894.40
2018-01-23T10:02:22.851Z,894.39
2018-01-23T10:03:22.835Z,894.39
2018-01-23T10:04:22.817Z,894.42
2018-01-23T10:05:22.808Z,894.40
2018-01-23T10:06:22.791Z,894.38
2018-01-23T10:07:22.783Z,894.34
2018-01-23T10:08:22.767Z,894.39
2018-01-23T10:09:22.755Z,894.34
2018-01-23T10:10:22.738Z,894.36
2018-01-23T10:11:22.723Z,894.38
2018-01-23T10:12:22.713Z,894.37
2018-01-23T10:13:22.697Z,894.39
2018-01-23T10:14:22.688Z,894.34
2018-01-23T10:15:22.672Z,894.31
2018-01-23T10:16:22.655Z,894.31
2018-01-23T10:17:22.645Z,894.29
2018-01-23T10:18:22.637Z,894.27
2018-01-23T10:19:22.618Z,894.28
2018-01-23T10:20:22.606Z,894.30
2018-01-23T10:21:22.589Z,894.27
2018-01-23T10:22:22.579Z,894.25
2018-01-23T10:23:22.568Z,894.24
2018-01-23T10:24:22.552Z,894.25
2018-01-23T10:25:22.539Z,894.29
2018-01-23T10:26:22.523Z,894.23
2018-01-23T10:27:22.513Z,894.22
2018-01-23T10:28:22.501Z,894.19
2018-01-23T10:29:22.499Z,894.14
2018-01-23T10:30:22.473Z,894.15
2018-01-23T10:31:22.460Z,894.16
2018-01-23T10:32:22.450Z,894.14
2018-01-23T10:33:22.438Z,894.12
2018-01-23T10:34:22.422Z,894.11
2018-01-23T10:35:22.411Z,894.15
2018-01-23T10:36:22.398Z,894.15
2018-01-23T10:37:22.389Z,894.16
2018-01-23T10:38:22.372Z,894.18
2018-01-23T10:39:22.358Z,894.17
2018-01-23T10:40:22.348Z,894.13
2018-01-23T10:41:22.334Z,894.15
2018-01-23T10:42:22.324Z,894.11
2018-01-23T10:43:22.309Z,894.12
2018-01-23T10:44:22.293Z,894.12
2018-01-23T10:45:22.290Z,894.11
2018-01-23T10:46:22.274Z,894.11
2018-01-23T10:47:22.261Z,894.09
2018-01-23T10:48:22.249Z,894.08
2018-01-23T10:49:22.239Z,894.08
2018-01-23T10:50:22.226Z,894.10
2018-01-23T10:51:22.210Z,894.09
2018-01-23T10:52:22.197Z,894.10
2018-01-23T10:53:22.185Z,894.09
2018-01-23T10:54:22.176Z,894.10
2018-01-23T10:55:22.162Z,894.10
2018-01-23T10:56:22.150Z,894.14
2018-01-23T10:57:22.140Z,894.14
2018-01-23T10:58:22.131Z,894.18
2018-01-23T10:59:22.121Z,894.11
2018-01-23T11:00:22.111Z,894.13
2018-01-23T11:01:22.096Z,894.08
2018-01-23T11:02:22.086Z,894.09
2018-01-23T11:03:22.069Z,894.03
2018-01-23T11:04:22.058Z,894.05
2018-01-23T11:05:22.046Z,894.02
2018-01-23T11:06:22.043Z,894.03
2018-01-23T11:07:22.047Z,894.08
2018-01-23T11:08:22.018Z,894.06
2018-01-23T11:09:22.004Z,894.06
2018-01-23T11:10:21.995Z,894.01
2018-01-23T11:11:21.981Z,894.02
2018-01-23T11:12:21.967Z,894.04
2018-01-23T11:13:21.956Z,894.07
2018-01-23T11:14:21.940Z,894.02
2018-01-23T11:15:21.933Z,893.99
2018-01-23T11:16:21.924Z,894.02
2018-01-23T11:17:21.911Z,893.98
2018-01-23T11:18:21.900Z,894.00
2018-01-23T11:19:21.889Z,894.00
2018-01-23T11:20:21.873Z,893.96
2018-01-23T11:21:21.869Z,893.96
2018-01-23T11:22:21.852Z,893.90
2018-01-23T11:23:21.843Z,893.92
2018-01-23T11:24:21.827Z,893.91
2018-01-23T11:25:21.813Z,893.94
2018-01-23T11:26:21.812Z,893.92
2018-01-23T11:27:21.792Z,893.94
2018-01-23T11:28:21.778Z,893.96
2018-01-23T11:29:21.769Z,893.94
2018-01-23T11:30:21.753Z,893.97
2018-01-23T11:31:21.744Z,893.97
2018-01-23T11:32:21.732Z,894.02
2018-01-23T11:33:21.713Z,894.04
2018-01-23T11:34:21.717Z,894.04
2018-01-23T11:35:21.699Z,894.04
2018-01-23T11:36:21.682Z,894.03
2018-01-23T11:37:21.674Z,894.06
2018-01-23T11:38:21.659Z,894.03
2018-01-23T11:39:21.647Z,894.05
2018-01-23T11:40:21.632Z,894.04
2018-01-23T11:41:21.621Z,894.08
2018-01-23T11:42:21.609Z,894.05
2018-01-23T11:43:21.597Z,894.05
2018-01-23T11:44:21.583Z,894.08
2018-01-23T11:45:21.572Z,894.06
2018-01-23T11:46:21.561Z,894.06
2018-01-23T11:47:21.547Z,894.07
2018-01-23T11:48:21.535Z,894.05
2018-01-23T11:49:21.523Z,894.03
2018-01-23T11:50:21.514Z,894.09
2018-01-23T11:51:21.507Z,894.08
2018-01-23T11:52:21.495Z,894.09
2018-01-23T11:53:21.480Z,894.09
2018-01-23T11:54:21.460Z,894.05
2018-01-23T11:55:21.453Z,894.08
2018-01-23T11:56:21.437Z,894.08
2018-01-23T11:57:21.425Z,894.06
2018-01-23T11:58:21.414Z,894.05
2018-01-23T11:59:21.402Z,894.08
2018-01-23T12:00:21.391Z,894.09
2018-01-23T12:01:21.377Z,894.10
2018-01-23T12:02:21.360Z,894.11
2018-01-23T12:03:21.352Z,894.15
2018-01-23T12:04:21.338Z,894.19
2018-01-23T12:05:21.329Z,894.20
2018-01-23T12:06:21.313Z,894.22
2018-01-23T12:07:21.302Z,894.23
2018-01-23T12:08:21.286Z,894.28
2018-01-23T12:09:21.279Z,894.31
2018-01-23T12:10:21.265Z,894.28
2018-01-23T12:11:21.256Z,894.30
2018-01-23T12:12:21.246Z,894.28
2018-01-23T12:13:21.227Z,894.32
2018-01-23T12:14:21.220Z,894.31
2018-01-23T12:15:21.201Z,894.31
2018-01-23T12:16:21.190Z,894.32
2018-01-23T12:17:21.176Z,894.31
2018-01-23T12:18:21.162Z,894.33
2018-01-23T12:19:21.153Z,894.29
2018-01-23T12:20:21.139Z,894.31
2018-01-23T12:21:21.128Z,894.30
2018-01-23T12:22:21.111Z,894.32
2018-01-23T12:23:21.099Z,894.33
2018-01-23T12:24:21.091Z,894.31
2018-01-23T12:25:21.081Z,894.33
2018-01-23T12:26:21.066Z,894.32
2018-01-23T12:27:21.051Z,894.34
2018-01-23T12:28:21.037Z,894.35